Time;durP1;ratioP1;P1;durP2;ratioP2;P2;SDS_P1;SDS_P2;PMS_P1;PMS_P2;Temp;Humidity;BMP_temperature;BMP_pressure;BME280_temperature;BME280_humidity;BME280_pressure;Samples;Min_cycle;Max_cycle;Signal;HPM_P1;HPM_P2
2022/05/31 00:02:11;;;;;;;1.85;0.88;;;11.20;70.20;;;;;;5076550;28;20040;-76
2022/05/31 00:04:39;;;;;;;1.45;0.70;;;11.20;70.10;;;;;;5063516;28;20054;-74
2022/05/31 00:07:07;;;;;;;2.00;0.73;;;11.20;70.10;;;;;;5081889;28;20037;-76
2022/05/31 00:09:34;;;;;;;2.95;0.80;;;11.20;70.20;;;;;;5083349;28;20534;-72
2022/05/31 00:12:04;;;;;;;2.45;0.80;;;11.20;70.40;;;;;;5078652;28;20041;-75
2022/05/31 00:14:31;;;;;;;2.90;1.15;;;11.20;70.20;;;;;;5047161;28;20615;-76
2022/05/31 00:16:59;;;;;;;1.83;0.90;;;11.20;70.10;;;;;;5081181;28;20377;-74
2022/05/31 00:19:27;;;;;;;1.40;0.70;;;11.20;70.00;;;;;;5079176;28;20106;-74
2022/05/31 00:22:01;;;;;;;1.52;0.60;;;11.20;70.00;;;;;;5080552;28;20052;-76
2022/05/31 00:24:28;;;;;;;2.03;0.93;;;11.20;70.00;;;;;;5078813;28;20138;-76
2022/05/31 00:26:56;;;;;;;2.38;0.93;;;11.10;70.00;;;;;;5079669;28;20048;-78
2022/05/31 00:29:24;;;;;;;3.20;1.00;;;11.10;70.30;;;;;;5077844;28;20044;-74
2022/05/31 00:31:52;;;;;;;1.73;1.00;;;11.00;70.40;;;;;;5060693;28;20138;-74
2022/05/31 00:34:21;;;;;;;2.58;0.82;;;11.00;70.50;;;;;;5061605;28;20052;-75
2022/05/31 00:36:50;;;;;;;2.83;0.98;;;10.90;70.60;;;;;;5061824;28;20602;-75
2022/05/31 00:39:17;;;;;;;3.42;1.08;;;10.90;70.80;;;;;;5042733;28;20044;-76
2022/05/31 00:41:57;;;;;;;0.75;0.60;;;10.90;70.80;;;;;;5077530;28;20033;-75
2022/05/31 00:44:28;;;;;;;2.53;0.80;;;10.90;70.80;;;;;;5058362;28;20080;-72
2022/05/31 00:46:57;;;;;;;2.83;0.95;;;10.90;70.90;;;;;;5077764;28;20044;-74
2022/05/31 00:49:29;;;;;;;3.70;1.97;;;10.90;70.90;;;;;;5060055;28;20056;-77
2022/05/31 00:52:00;;;;;;;1.73;0.63;;;10.80;70.90;;;;;;5077001;28;20040;-76
2022/05/31 00:54:32;;;;;;;1.13;0.57;;;10.90;70.90;;;;;;5076032;28;20109;-77
2022/05/31 00:57:00;;;;;;;3.00;0.85;;;10.80;70.80;;;;;;5061308;28;20051;-75
2022/05/31 00:59:35;;;;;;;2.83;0.77;;;10.80;70.80;;;;;;5076955;28;20447;-74
2022/05/31 01:02:02;;;;;;;1.98;0.80;;;10.80;70.80;;;;;;5054072;28;20052;-73
2022/05/31 01:04:35;;;;;;;3.92;0.88;;;10.70;70.90;;;;;;5080553;28;20048;-78
2022/05/31 01:07:03;;;;;;;2.90;0.95;;;10.70;70.90;;;;;;5080238;28;20036;-76
2022/05/31 01:09:31;;;;;;;1.52;0.75;;;10.70;70.90;;;;;;5079439;28;20504;-72
2022/05/31 01:12:20;;;;;;;1.60;0.70;;;10.70;70.80;;;;;;5047705;28;20522;-73
2022/05/31 01:15:09;;;;;;;2.05;0.80;;;10.70;70.70;;;;;;5078280;28;20079;-75
2022/05/31 01:17:59;;;;;;;1.48;0.80;;;10.60;70.90;;;;;;5080526;28;20399;-77
2022/05/31 01:21:01;;;;;;;1.25;0.77;;;10.60;70.90;;;;;;5077895;28;20048;-76
2022/05/31 01:23:56;;;;;;;2.80;0.90;;;10.60;71.00;;;;;;5079280;28;20056;-76
2022/05/31 01:26:34;;;;;;;1.88;0.50;;;10.50;71.20;;;;;;5080318;28;20037;-76
2022/05/31 01:29:11;;;;;;;1.67;0.80;;;10.40;71.20;;;;;;5061134;28;20098;-73
2022/05/31 01:31:43;;;;;;;2.08;1.10;;;10.40;71.20;;;;;;5078957;28;20123;-77
2022/05/31 01:34:18;;;;;;;2.78;0.88;;;10.40;71.30;;;;;;5079419;28;20055;-75
2022/05/31 01:36:50;;;;;;;2.17;0.98;;;10.30;71.50;;;;;;5077899;28;20045;-77
2022/05/31 01:39:23;;;;;;;4.25;0.73;;;10.30;71.70;;;;;;5061442;28;20052;-76
2022/05/31 01:41:56;;;;;;;3.53;1.10;;;10.30;71.60;;;;;;5078460;28;20048;-74
2022/05/31 01:44:27;;;;;;;2.00;0.85;;;10.30;71.40;;;;;;5060941;28;20146;-74
2022/05/31 01:46:57;;;;;;;1.95;0.90;;;10.30;71.20;;;;;;5077719;28;20079;-73
2022/05/31 01:49:30;;;;;;;2.45;0.70;;;10.40;71.00;;;;;;5074414;28;20064;-77
2022/05/31 01:51:59;;;;;;;3.58;0.77;;;10.40;70.70;;;;;;5065554;28;20115;-73
2022/05/31 01:54:29;;;;;;;3.70;1.08;;;10.50;70.60;;;;;;5059660;28;20079;-74
2022/05/31 01:57:00;;;;;;;1.73;0.70;;;10.40;70.60;;;;;;5060674;28;20067;-78
2022/05/31 01:59:35;;;;;;;2.45;1.05;;;10.40;70.80;;;;;;5079566;28;20098;-77
2022/05/31 02:02:03;;;;;;;4.20;1.25;;;10.30;71.10;;;;;;5054371;28;20044;-71
2022/05/31 02:04:31;;;;;;;3.95;1.00;;;10.20;71.20;;;;;;5077796;28;20400;-76
2022/05/31 02:07:15;;;;;;;2.03;0.68;;;10.20;71.20;;;;;;5057773;28;20067;-73
2022/05/31 02:09:46;;;;;;;1.75;0.80;;;10.30;71.10;;;;;;5057668;28;20046;-75
2022/05/31 02:12:22;;;;;;;2.75;1.13;;;10.20;71.10;;;;;;5058979;28;20044;-75
2022/05/31 02:15:11;;;;;;;2.50;0.95;;;10.20;71.00;;;;;;5066544;28;20080;-73
2022/05/31 02:17:47;;;;;;;4.55;1.08;;;10.20;70.90;;;;;;5060132;28;20657;-75
2022/05/31 02:20:34;;;;;;;1.58;0.68;;;10.20;71.00;;;;;;5059358;28;20058;-74
2022/05/31 02:23:06;;;;;;;1.65;0.75;;;10.20;71.10;;;;;;5078069;28;20056;-73
2022/05/31 02:25:35;;;;;;;1.43;0.77;;;10.20;71.10;;;;;;5078203;28;20056;-75
2022/05/31 02:28:02;;;;;;;2.58;0.80;;;10.20;71.00;;;;;;5038818;28;20047;-77
2022/05/31 02:30:29;;;;;;;4.45;1.00;;;10.10;71.20;;;;;;5077852;28;20091;-76
2022/05/31 02:32:57;;;;;;;1.98;0.80;;;10.10;71.40;;;;;;5073837;28;20072;-74
2022/05/31 02:35:24;;;;;;;1.25;0.60;;;10.00;71.70;;;;;;5069413;28;20119;-71
2022/05/31 02:37:52;;;;;;;2.63;0.82;;;10.00;71.80;;;;;;5061403;28;20139;-74
2022/05/31 02:40:22;;;;;;;2.95;0.57;;;9.90;71.90;;;;;;5056362;28;20079;-73
2022/05/31 02:42:49;;;;;;;1.73;1.00;;;9.90;72.00;;;;;;5059853;28;20056;-76
2022/05/31 02:45:16;;;;;;;2.35;0.88;;;9.90;72.00;;;;;;5074609;28;20530;-74
2022/05/31 02:47:45;;;;;;;3.80;0.85;;;9.90;72.00;;;;;;5056555;28;20044;-73
2022/05/31 02:50:12;;;;;;;4.15;0.90;;;9.90;71.90;;;;;;5072741;28;20221;-74
2022/05/31 02:52:40;;;;;;;3.05;0.95;;;9.90;71.80;;;;;;5055613;28;20579;-75
2022/05/31 02:55:09;;;;;;;2.13;1.33;;;9.90;71.80;;;;;;5058472;28;20089;-75
2022/05/31 02:57:56;;;;;;;2.95;1.10;;;9.90;71.90;;;;;;5077762;28;20051;-75
2022/05/31 03:00:49;;;;;;;2.15;0.77;;;9.90;72.00;;;;;;5051004;28;20055;-75
2022/05/31 03:03:36;;;;;;;1.88;0.82;;;9.90;71.90;;;;;;5078003;28;20613;-72
2022/05/31 03:06:33;;;;;;;1.73;0.80;;;10.00;71.80;;;;;;5023204;28;20093;-74
2022/05/31 03:09:07;;;;;;;1.90;0.90;;;10.00;71.60;;;;;;5065959;28;20052;-74
2022/05/31 03:11:43;;;;;;;1.85;0.93;;;10.00;71.70;;;;;;5045286;28;20110;-74
2022/05/31 03:14:19;;;;;;;2.08;0.70;;;10.00;71.50;;;;;;5046491;28;20055;-75
2022/05/31 03:16:48;;;;;;;2.20;1.00;;;10.00;71.40;;;;;;5048125;28;20410;-78
2022/05/31 03:19:18;;;;;;;2.22;1.00;;;10.00;71.40;;;;;;5049576;28;20048;-74
2022/05/31 03:21:49;;;;;;;2.70;0.90;;;10.00;71.60;;;;;;5049407;28;20040;-78
2022/05/31 03:24:23;;;;;;;2.10;0.90;;;9.90;71.90;;;;;;5075531;28;20116;-73
2022/05/31 03:26:54;;;;;;;1.77;0.80;;;9.90;72.20;;;;;;5071777;28;20509;-75
2022/05/31 03:29:24;;;;;;;2.83;1.10;;;9.90;72.30;;;;;;5075841;28;20055;-72
2022/05/31 03:31:52;;;;;;;3.63;0.90;;;9.90;72.50;;;;;;5039306;28;20044;-78
2022/05/31 03:34:19;;;;;;;4.20;1.08;;;9.80;72.50;;;;;;5074746;28;20454;-79
2022/05/31 03:36:46;;;;;;;1.63;1.00;;;9.90;72.70;;;;;;5079477;28;20040;-75
2022/05/31 03:39:16;;;;;;;1.87;1.03;;;9.90;72.60;;;;;;5055165;28;20040;-75
2022/05/31 03:41:44;;;;;;;1.15;0.77;;;9.90;72.40;;;;;;5058036;28;20592;-75
2022/05/31 03:44:12;;;;;;;1.38;0.73;;;10.00;72.10;;;;;;5058186;28;20048;-76
2022/05/31 03:46:43;;;;;;;2.05;1.25;;;10.00;71.80;;;;;;5074930;28;20134;-80
2022/05/31 03:49:36;;;;;;;2.10;0.82;;;10.10;71.50;;;;;;5065885;28;20052;-75
2022/05/31 03:52:07;;;;;;;4.18;0.88;;;10.10;71.50;;;;;;5060859;28;20051;-74
2022/05/31 03:54:40;;;;;;;1.77;1.00;;;10.00;71.70;;;;;;5068323;28;20041;-73
2022/05/31 03:57:15;;;;;;;1.98;0.75;;;10.00;71.70;;;;;;5075365;28;20048;-76
2022/05/31 03:59:46;;;;;;;4.43;0.95;;;10.10;71.60;;;;;;5054205;28;20102;-76
2022/05/31 04:02:15;;;;;;;3.97;0.80;;;10.10;71.60;;;;;;5051202;28;20048;-74
2022/05/31 04:04:43;;;;;;;2.60;1.00;;;10.10;71.50;;;;;;5057024;28;20067;-75
2022/05/31 04:07:14;;;;;;;1.15;0.70;;;10.10;71.30;;;;;;5053629;28;20052;-73
2022/05/31 04:09:41;;;;;;;1.98;0.90;;;10.20;71.10;;;;;;5054899;28;20423;-75
2022/05/31 04:12:11;;;;;;;2.83;0.90;;;10.20;71.20;;;;;;5055709;28;20109;-76
2022/05/31 04:14:59;;;;;;;1.40;0.70;;;10.20;71.10;;;;;;5028303;28;20052;-72
2022/05/31 04:17:28;;;;;;;2.35;1.20;;;10.20;71.20;;;;;;5076491;28;20063;-74
2022/05/31 04:19:56;;;;;;;1.67;0.80;;;10.20;71.20;;;;;;5079049;28;20408;-73
2022/05/31 04:22:23;;;;;;;1.15;0.82;;;10.30;71.10;;;;;;5057530;28;20043;-76
2022/05/31 04:25:00;;;;;;;1.50;0.70;;;10.30;71.00;;;;;;5060163;28;20093;-77
2022/05/31 04:27:52;;;;;;;1.10;0.70;;;10.30;70.90;;;;;;5047634;28;20052;-76
2022/05/31 04:30:38;;;;;;;1.83;0.73;;;10.30;71.10;;;;;;5070557;28;20175;-76
2022/05/31 04:33:25;;;;;;;2.20;1.02;;;10.40;71.20;;;;;;5069599;28;20774;-72
2022/05/31 04:35:59;;;;;;;1.60;0.90;;;10.40;71.40;;;;;;5052910;28;20047;-75
2022/05/31 04:38:28;;;;;;;1.48;0.70;;;10.30;71.50;;;;;;5077489;28;20463;-77
2022/05/31 04:40:59;;;;;;;1.38;0.82;;;10.30;71.70;;;;;;5061943;28;20118;-74
2022/05/31 04:43:56;;;;;;;2.53;1.08;;;10.30;71.90;;;;;;5050320;28;20451;-74
2022/05/31 04:46:32;;;;;;;2.58;1.10;;;10.30;72.20;;;;;;5039438;28;20469;-76
2022/05/31 04:49:09;;;;;;;4.03;1.23;;;10.30;72.40;;;;;;5043157;28;20519;-75
2022/05/31 04:51:37;;;;;;;2.80;1.50;;;10.40;72.30;;;;;;5040983;28;20056;-78
2022/05/31 04:54:06;;;;;;;2.22;1.00;;;10.40;72.20;;;;;;5058119;28;20036;-74
2022/05/31 04:56:54;;;;;;;3.00;1.00;;;10.50;72.00;;;;;;5051371;28;20135;-76
2022/05/31 04:59:22;;;;;;;3.30;1.08;;;10.60;71.90;;;;;;5024870;28;20043;-76
2022/05/31 05:01:50;;;;;;;4.53;1.00;;;10.60;71.90;;;;;;5038667;28;20048;-78
2022/05/31 05:04:31;;;;;;;;;;;10.70;71.60;;;;;;5040654;28;20048;-78
2022/05/31 05:06:59;;;;;;;2.45;0.95;;;10.70;71.50;;;;;;5042088;28;19924;-75
2022/05/31 05:09:26;;;;;;;5.00;1.30;;;10.80;71.30;;;;;;5056303;28;20087;-75
2022/05/31 05:12:13;;;;;;;3.08;1.08;;;10.80;71.30;;;;;;5056840;28;20480;-74
2022/05/31 05:14:44;;;;;;;1.98;0.80;;;10.70;71.50;;;;;;5039089;28;20211;-76
2022/05/31 05:17:23;;;;;;;2.47;1.20;;;10.80;71.60;;;;;;5039591;28;20106;-78
2022/05/31 05:19:52;;;;;;;2.22;0.85;;;10.80;71.70;;;;;;5038075;28;20127;-76
2022/05/31 05:22:20;;;;;;;3.00;1.10;;;10.80;71.70;;;;;;5025203;28;20048;-78
2022/05/31 05:24:47;;;;;;;4.70;1.20;;;10.80;71.90;;;;;;5036819;28;20076;-78
2022/05/31 05:27:32;;;;;;;3.15;1.38;;;10.80;72.10;;;;;;5056644;28;20072;-78
2022/05/31 05:30:41;;;;;;;2.00;1.00;;;10.90;72.20;;;;;;5037705;28;20040;-78
2022/05/31 05:33:20;;;;;;;2.33;1.23;;;10.90;72.20;;;;;;5059139;28;20136;-75
2022/05/31 05:36:18;;;;;;;2.30;1.10;;;10.90;72.50;;;;;;5043303;28;20123;-76
2022/05/31 05:38:47;;;;;;;;;;;10.90;72.60;;;;;;5035216;28;20033;-76
2022/05/31 05:41:32;;;;;;;4.18;1.40;;;10.90;72.60;;;;;;5051121;28;20279;-76
2022/05/31 05:44:18;;;;;;;2.22;1.10;;;10.90;72.70;;;;;;5063588;28;20059;-77
2022/05/31 05:46:47;;;;;;;1.85;0.90;;;11.00;72.80;;;;;;5055524;28;20052;-75
2022/05/31 05:49:14;;;;;;;3.83;1.05;;;11.00;72.70;;;;;;5049397;28;20499;-74
2022/05/31 05:51:44;;;;;;;2.53;1.02;;;11.00;72.60;;;;;;5053938;28;20049;-75
2022/05/31 05:54:46;;;;;;;4.13;1.02;;;11.10;72.60;;;;;;5075082;28;20055;-77
2022/05/31 05:57:32;;;;;;;2.15;1.05;;;11.10;72.60;;;;;;5077391;28;20618;-74
2022/05/31 06:00:21;;;;;;;4.15;0.88;;;11.20;72.40;;;;;;5036713;28;20059;-74
2022/05/31 06:03:04;;;;;;;1.95;0.77;;;11.20;72.20;;;;;;5075177;28;20560;-75
2022/05/31 06:05:53;;;;;;;4.18;1.27;;;11.30;72.20;;;;;;5059735;28;20497;-72
2022/05/31 06:08:24;;;;;;;2.90;0.98;;;11.40;71.90;;;;;;5074294;28;20487;-73
2022/05/31 06:11:02;;;;;;;4.07;1.05;;;11.40;71.70;;;;;;5067701;28;20050;-76
2022/05/31 06:13:34;;;;;;;2.38;1.20;;;11.50;71.80;;;;;;5046516;28;20052;-74
2022/05/31 06:16:01;;;;;;;4.20;1.13;;;11.50;71.90;;;;;;5051849;28;20044;-73
2022/05/31 06:18:33;;;;;;;5.28;1.50;;;11.60;72.10;;;;;;5051551;28;20048;-73
2022/05/31 06:21:05;;;;;;;2.33;1.08;;;11.60;72.00;;;;;;5050363;28;20056;-77
2022/05/31 06:23:36;;;;;;;2.53;0.80;;;11.70;72.30;;;;;;5050878;28;20084;-76
2022/05/31 06:26:04;;;;;;;2.28;0.90;;;11.70;72.40;;;;;;5047075;28;20054;-78
2022/05/31 06:28:37;;;;;;;1.58;0.77;;;11.80;72.40;;;;;;5052622;28;20066;-75
2022/05/31 06:31:05;;;;;;;2.10;0.80;;;11.90;72.50;;;;;;5048551;28;20056;-74
2022/05/31 06:33:32;;;;;;;1.88;0.70;;;11.90;72.40;;;;;;5051490;28;20044;-76
2022/05/31 06:36:01;;;;;;;2.47;0.90;;;12.10;72.20;;;;;;5067017;28;20506;-73
2022/05/31 06:38:32;;;;;;;2.75;0.98;;;12.20;71.60;;;;;;5036185;28;20059;-76
2022/05/31 06:41:00;;;;;;;1.85;0.95;;;12.30;71.20;;;;;;5056063;28;20222;-77
2022/05/31 06:43:45;;;;;;;3.17;1.17;;;12.40;71.20;;;;;;5050759;28;20059;-73
2022/05/31 06:46:31;;;;;;;2.35;0.90;;;12.50;71.10;;;;;;5065144;28;20052;-76
2022/05/31 06:49:17;;;;;;;4.22;1.20;;;12.60;71.10;;;;;;5068319;28;20059;-74
2022/05/31 06:58:35;;;;;;;3.15;0.93;;;13.00;70.10;;;;;;5074387;28;20071;-76
2022/05/31 07:01:04;;;;;;;3.42;1.08;;;13.10;69.70;;;;;;5053696;28;20040;-72
2022/05/31 07:03:31;;;;;;;2.08;0.80;;;13.20;69.70;;;;;;5057445;28;20045;-75
2022/05/31 07:05:59;;;;;;;2.28;0.95;;;13.30;69.70;;;;;;5052677;28;20052;-76
2022/05/31 07:08:27;;;;;;;3.42;0.95;;;13.50;69.60;;;;;;5073668;28;20434;-76
2022/05/31 07:11:00;;;;;;;2.97;1.00;;;13.60;69.50;;;;;;5065573;28;20599;-75
2022/05/31 07:13:48;;;;;;;1.02;0.47;;;13.70;69.70;;;;;;5063987;28;20126;-74
2022/05/31 07:16:33;;;;;;;2.70;0.90;;;13.80;68.70;;;;;;5064813;28;20059;-75
2022/05/31 07:19:24;;;;;;;;;;;13.90;69.00;;;;;;5051582;28;20059;-75
2022/05/31 07:21:51;;;;;;;3.72;0.80;;;13.90;68.20;;;;;;5063462;28;19932;-76
2022/05/31 07:24:18;;;;;;;2.78;0.90;;;14.00;68.50;;;;;;5029531;28;20036;-74
2022/05/31 07:27:05;;;;;;;1.42;0.68;;;14.00;68.30;;;;;;5067298;28;22899;-75
2022/05/31 07:29:34;;;;;;;1.52;0.60;;;14.10;68.60;;;;;;5047111;28;20048;-74
2022/05/31 07:32:07;;;;;;;1.98;0.60;;;14.10;68.60;;;;;;5050767;28;20048;-73
2022/05/31 07:34:35;;;;;;;1.35;0.80;;;14.20;68.20;;;;;;5055349;28;20056;-75
2022/05/31 07:37:02;;;;;;;1.67;0.70;;;14.20;68.40;;;;;;5067571;28;20182;-74
2022/05/31 07:39:30;;;;;;;1.90;0.88;;;14.30;68.00;;;;;;5070944;28;20039;-76
2022/05/31 07:41:59;;;;;;;1.98;0.60;;;14.40;68.40;;;;;;5053981;28;20054;-73
2022/05/31 07:44:27;;;;;;;1.63;0.70;;;14.50;68.10;;;;;;5055364;28;20060;-77
2022/05/31 07:46:56;;;;;;;2.35;0.63;;;14.70;68.30;;;;;;5057797;28;20404;-73
2022/05/31 07:49:23;;;;;;;2.55;0.60;;;14.90;68.10;;;;;;5049105;28;20049;-75
2022/05/31 07:51:59;;;;;;;4.05;0.90;;;15.00;67.90;;;;;;5050769;28;20368;-75
2022/05/31 07:54:46;;;;;;;1.67;0.60;;;15.20;67.50;;;;;;5073309;28;20063;-76
2022/05/31 08:00:28;;;;;;;1.33;0.60;;;15.40;66.70;;;;;;5032458;28;20634;-76
2022/05/31 08:02:58;;;;;;;2.65;0.85;;;15.50;65.70;;;;;;5068652;28;20064;-75
2022/05/31 08:05:25;;;;;;;2.50;0.55;;;15.50;65.70;;;;;;5035248;28;20052;-75
2022/05/31 08:07:52;;;;;;;2.72;0.88;;;15.50;65.80;;;;;;5066684;28;20521;-76
2022/05/31 08:10:20;;;;;;;1.38;0.65;;;15.60;65.80;;;;;;5069080;28;20491;-72
2022/05/31 08:12:47;;;;;;;1.60;0.68;;;15.60;66.00;;;;;;5059518;28;20143;-77
2022/05/31 08:15:14;;;;;;;2.17;0.80;;;15.60;65.70;;;;;;5076957;28;20072;-76
2022/05/31 08:17:42;;;;;;;1.08;0.70;;;15.60;65.50;;;;;;5079050;28;20076;-77
2022/05/31 08:20:12;;;;;;;1.08;0.52;;;15.60;65.40;;;;;;5077312;28;20036;-77
2022/05/31 08:22:39;;;;;;;3.50;1.00;;;15.70;65.20;;;;;;5078624;28;20040;-76
2022/05/31 08:25:08;;;;;;;2.53;0.85;;;15.70;65.20;;;;;;5058353;28;20534;-76
2022/05/31 08:27:35;;;;;;;1.15;0.73;;;15.80;65.50;;;;;;5064864;28;20040;-78
2022/05/31 08:30:04;;;;;;;1.85;0.68;;;15.80;65.50;;;;;;5068803;28;20055;-75
2022/05/31 08:32:32;;;;;;;2.03;0.80;;;16.00;65.20;;;;;;5067128;28;20044;-72
2022/05/31 08:34:59;;;;;;;1.70;0.63;;;16.00;65.20;;;;;;5071294;28;20047;-75
2022/05/31 08:37:28;;;;;;;2.08;0.70;;;16.10;65.00;;;;;;5046216;28;20040;-75
2022/05/31 08:39:55;;;;;;;1.33;0.68;;;16.10;65.10;;;;;;5071493;28;20042;-78
2022/05/31 08:42:24;;;;;;;2.05;0.85;;;16.20;64.40;;;;;;5069914;28;20516;-72
2022/05/31 08:45:00;;;;;;;1.77;0.90;;;16.30;65.10;;;;;;5066814;28;20045;-78
2022/05/31 08:47:41;;;;;;;1.55;0.65;;;16.30;64.50;;;;;;5046752;28;20482;-76
2022/05/31 08:53:15;;;;;;;1.20;0.80;;;16.60;64.80;;;;;;5069757;28;20118;-74
2022/05/31 08:58:39;;;;;;;1.08;0.63;;;17.00;64.30;;;;;;5049010;28;20041;-76
2022/05/31 09:01:06;;;;;;;2.30;0.80;;;17.10;63.50;;;;;;5065393;28;20487;-72
2022/05/31 09:03:42;;;;;;;3.40;1.08;;;17.10;63.20;;;;;;5069198;28;20066;-77
2022/05/31 09:06:13;;;;;;;2.90;1.05;;;17.00;62.90;;;;;;5069173;28;20558;-76
2022/05/31 09:08:45;;;;;;;1.60;0.88;;;17.00;62.50;;;;;;5068846;28;20044;-76
2022/05/31 09:11:17;;;;;;;1.50;0.60;;;17.10;61.90;;;;;;5061949;28;20399;-74
2022/05/31 09:13:51;;;;;;;3.15;0.85;;;17.30;62.30;;;;;;5067752;28;20044;-77
2022/05/31 09:16:29;;;;;;;3.25;1.30;;;17.50;61.70;;;;;;5067333;28;20503;-77
2022/05/31 09:18:59;;;;;;;4.05;1.33;;;17.60;62.50;;;;;;5065794;28;20043;-71
2022/05/31 09:21:34;;;;;;;5.05;1.90;;;17.80;60.70;;;;;;5068508;28;20049;-77
2022/05/31 09:24:03;;;;;;;4.55;1.65;;;17.90;59.90;;;;;;5053332;28;20054;-76
2022/05/31 09:26:51;;;;;;;7.15;2.22;;;18.10;61.10;;;;;;5069184;28;20044;-75
2022/05/31 09:29:22;;;;;;;13.88;6.50;;;18.20;60.00;;;;;;5070169;28;20040;-75
2022/05/31 09:32:00;;;;;;;20.52;8.57;;;18.40;60.00;;;;;;5069701;28;20040;-73
2022/05/31 09:34:41;;;;;;;17.40;8.10;;;18.50;59.70;;;;;;5073312;28;20052;-76
2022/05/31 09:37:24;;;;;;;17.90;7.53;;;18.60;57.90;;;;;;5059975;28;20056;-76
2022/05/31 09:40:08;;;;;;;13.45;6.20;;;18.70;59.10;;;;;;5073228;28;20411;-74
2022/05/31 09:42:40;;;;;;;12.30;6.32;;;18.90;58.90;;;;;;5051051;28;20641;-76
2022/05/31 09:45:10;;;;;;;17.67;7.47;;;19.00;58.30;;;;;;5069828;28;20055;-76
2022/05/31 09:47:38;;;;;;;15.77;6.32;;;19.10;57.80;;;;;;5060824;28;20055;-77
2022/05/31 09:50:06;;;;;;;15.02;6.88;;;19.10;57.40;;;;;;5077268;28;20036;-74
2022/05/31 09:52:39;;;;;;;14.85;6.55;;;19.20;57.10;;;;;;5067035;28;20044;-77
2022/05/31 09:58:23;;;;;;;10.40;5.03;;;19.30;56.60;;;;;;5071462;28;20056;-77
2022/05/31 10:01:25;;;;;;;8.32;3.42;;;19.30;56.50;;;;;;5073790;28;20051;-76
2022/05/31 10:04:09;;;;;;;9.30;3.15;;;19.30;55.30;;;;;;5047594;28;20036;-75
2022/05/31 10:06:53;;;;;;;6.47;2.95;;;19.30;55.30;;;;;;5073702;28;20130;-77
2022/05/31 10:09:24;;;;;;;5.95;3.10;;;19.30;55.50;;;;;;5040861;28;20048;-74
2022/05/31 10:12:05;;;;;;;5.38;2.15;;;19.30;55.60;;;;;;5057856;28;20507;-73
2022/05/31 10:14:36;;;;;;;6.93;2.88;;;19.20;54.70;;;;;;5073193;28;20041;-73
2022/05/31 10:17:27;;;;;;;5.60;2.65;;;19.20;54.70;;;;;;5075207;28;20077;-77
2022/05/31 10:20:14;;;;;;;6.05;2.80;;;19.30;54.60;;;;;;5078935;28;20052;-76
2022/05/31 10:22:56;;;;;;;6.72;2.55;;;19.40;55.00;;;;;;5075765;28;20039;-78
2022/05/31 10:25:46;;;;;;;6.18;2.42;;;19.50;55.60;;;;;;5067162;28;20246;-77
2022/05/31 10:28:55;;;;;;;5.85;2.20;;;19.60;55.20;;;;;;5048637;28;20052;-79
2022/05/31 10:31:43;;;;;;;5.90;2.55;;;19.60;55.00;;;;;;5066025;28;20079;-76
2022/05/31 10:34:25;;;;;;;;;;;19.50;54.70;;;;;;5066210;28;20076;-78
2022/05/31 10:36:56;;;;;;;4.03;1.48;;;19.50;54.80;;;;;;5067296;28;19948;-76
2022/05/31 10:39:25;;;;;;;3.22;1.20;;;19.50;55.10;;;;;;5050894;28;20126;-76
2022/05/31 10:41:55;;;;;;;3.50;1.30;;;19.50;55.00;;;;;;5060127;28;20048;-76
2022/05/31 10:44:31;;;;;;;3.40;1.20;;;19.60;55.60;;;;;;5066350;28;20071;-76
2022/05/31 10:47:04;;;;;;;2.15;1.17;;;19.60;55.80;;;;;;5054165;28;20056;-77
2022/05/31 10:49:33;;;;;;;6.18;2.03;;;19.60;55.60;;;;;;5064455;28;20036;-75
2022/05/31 10:52:20;;;;;;;9.23;3.85;;;19.70;55.10;;;;;;5059611;28;20044;-78
2022/05/31 10:55:19;;;;;;;10.55;3.55;;;19.80;54.90;;;;;;5060743;28;20413;-75
2022/05/31 10:58:03;;;;;;;11.25;4.97;;;19.80;54.80;;;;;;5047484;28;20044;-75
2022/05/31 11:00:40;;;;;;;9.98;4.25;;;19.80;54.50;;;;;;5039491;28;20046;-77
2022/05/31 11:03:33;;;;;;;10.52;4.93;;;19.80;54.40;;;;;;5036738;28;20064;-77
2022/05/31 11:06:21;;;;;;;10.07;4.40;;;19.80;53.50;;;;;;5064198;28;20239;-72
2022/05/31 11:12:01;;;;;;;5.40;2.15;;;20.00;52.40;;;;;;5050184;28;20060;-74
2022/05/31 11:14:43;;;;;;;3.22;1.30;;;20.10;52.80;;;;;;5078166;28;20451;-72
2022/05/31 11:17:32;;;;;;;3.28;1.40;;;20.10;51.60;;;;;;5072418;28;20492;-73
2022/05/31 11:20:08;;;;;;;2.55;1.17;;;20.00;51.60;;;;;;5060345;28;20051;-77
2022/05/31 11:22:56;;;;;;;2.90;0.75;;;20.10;51.40;;;;;;5064879;28;20059;-75
2022/05/31 11:25:51;;;;;;;3.55;1.23;;;20.10;52.20;;;;;;5043139;28;20130;-78
2022/05/31 11:28:38;;;;;;;9.60;2.88;;;20.10;52.20;;;;;;5037805;28;20064;-73
2022/05/31 11:31:17;;;;;;;5.72;2.40;;;20.10;52.10;;;;;;5053842;28;20052;-78
2022/05/31 11:34:02;;;;;;;6.20;2.00;;;20.10;51.90;;;;;;5074065;28;20135;-78
2022/05/31 11:36:40;;;;;;;2.75;1.20;;;20.10;51.50;;;;;;5054704;28;20052;-77
2022/05/31 11:39:24;;;;;;;4.25;1.25;;;20.10;51.90;;;;;;5057912;28;20043;-74
2022/05/31 11:42:07;;;;;;;3.35;1.40;;;20.10;52.20;;;;;;5069418;28;20090;-77
2022/05/31 11:45:04;;;;;;;4.15;1.50;;;20.10;52.40;;;;;;5073878;28;20052;-78
2022/05/31 11:47:55;;;;;;;4.13;1.80;;;20.20;52.00;;;;;;5072381;28;20522;-78
2022/05/31 11:50:31;;;;;;;4.70;1.60;;;20.20;51.80;;;;;;5075842;28;20181;-74
2022/05/31 11:53:12;;;;;;;4.32;1.88;;;20.30;52.10;;;;;;5070892;28;20079;-77
2022/05/31 11:55:48;;;;;;;4.85;2.03;;;20.40;52.40;;;;;;5071526;28;20040;-76
2022/05/31 11:58:27;;;;;;;6.22;1.90;;;20.50;52.20;;;;;;5059109;28;20048;-78
2022/05/31 12:01:05;;;;;;;4.20;1.37;;;20.50;52.10;;;;;;5036117;28;20127;-77
2022/05/31 12:03:38;;;;;;;2.63;1.00;;;20.50;52.10;;;;;;5073773;28;20044;-77
2022/05/31 12:06:13;;;;;;;2.28;0.95;;;20.60;51.30;;;;;;5075724;28;20048;-76
2022/05/31 12:08:47;;;;;;;3.03;1.33;;;20.60;51.40;;;;;;5080543;28;20072;-75
2022/05/31 12:11:19;;;;;;;1.70;0.77;;;20.60;51.40;;;;;;5079226;28;20575;-73
2022/05/31 12:13:48;;;;;;;2.67;0.98;;;20.60;51.40;;;;;;5077088;28;20044;-76
2022/05/31 12:16:17;;;;;;;2.10;0.98;;;20.60;51.40;;;;;;5057111;28;20051;-75
2022/05/31 12:18:53;;;;;;;3.13;1.48;;;20.50;51.40;;;;;;5059170;28;20044;-74
2022/05/31 12:21:29;;;;;;;2.60;0.95;;;20.40;51.40;;;;;;5077015;28;20055;-77
2022/05/31 12:24:03;;;;;;;2.15;1.08;;;20.40;51.60;;;;;;5078452;28;20512;-78
2022/05/31 12:26:36;;;;;;;2.00;1.25;;;20.40;51.70;;;;;;5079068;28;20045;-75
2022/05/31 12:29:12;;;;;;;1.25;0.77;;;20.50;51.80;;;;;;5078903;28;20136;-74
2022/05/31 12:31:41;;;;;;;2.00;0.90;;;20.60;51.50;;;;;;5061803;28;20052;-74
2022/05/31 12:34:15;;;;;;;1.63;0.82;;;20.60;51.70;;;;;;5079772;28;20455;-77
2022/05/31 12:37:01;;;;;;;2.97;1.00;;;20.70;51.30;;;;;;5071297;28;20068;-74
2022/05/31 12:39:33;;;;;;;1.95;1.05;;;20.70;51.20;;;;;;5080464;28;20055;-73
2022/05/31 12:42:18;;;;;;;2.17;0.98;;;20.80;51.10;;;;;;5081100;28;20067;-75
2022/05/31 12:44:47;;;;;;;3.97;0.77;;;20.80;50.70;;;;;;5061693;28;20048;-76
2022/05/31 12:47:18;;;;;;;2.40;0.90;;;20.80;50.70;;;;;;5059169;28;20520;-74
2022/05/31 12:49:53;;;;;;;1.13;0.70;;;20.90;50.60;;;;;;5042607;28;20607;-74
2022/05/31 12:52:46;;;;;;;2.92;1.08;;;20.80;49.90;;;;;;5039817;28;20041;-77
2022/05/31 12:55:34;;;;;;;2.60;0.70;;;20.80;49.50;;;;;;5057771;28;20044;-77
2022/05/31 13:00:51;;;;;;;1.40;0.90;;;20.80;49.10;;;;;;5035427;28;20059;-74
2022/05/31 13:03:57;;;;;;;2.38;1.00;;;20.70;49.00;;;;;;5060283;28;20048;-74
2022/05/31 13:06:34;;;;;;;1.55;0.80;;;20.70;49.50;;;;;;5054429;28;20571;-74
2022/05/31 13:09:05;;;;;;;2.03;0.95;;;20.80;49.50;;;;;;5057946;28;20041;-73
2022/05/31 13:20:19;;;;;;;1.63;1.02;;;20.80;49.10;;;;;;5037373;28;20037;-72
2022/05/31 13:22:50;;;;;;;3.22;1.00;;;20.90;49.40;;;;;;5040086;28;20128;-76
2022/05/31 13:25:23;;;;;;;5.20;1.40;;;21.00;49.10;;;;;;5059511;28;20120;-77
2022/05/31 13:27:52;;;;;;;4.55;1.30;;;21.10;49.00;;;;;;5051942;28;20048;-78
2022/05/31 13:30:25;;;;;;;3.60;1.33;;;21.20;48.50;;;;;;5057419;28;20051;-77
2022/05/31 13:32:57;;;;;;;4.72;1.50;;;21.20;47.90;;;;;;5058305;28;20091;-74
2022/05/31 13:35:27;;;;;;;4.85;1.30;;;21.40;46.90;;;;;;5043494;28;20072;-77
2022/05/31 13:38:00;;;;;;;3.13;1.38;;;21.50;46.30;;;;;;5059694;28;20500;-73
2022/05/31 13:40:34;;;;;;;3.30;1.10;;;21.50;46.10;;;;;;5059766;28;20041;-74
2022/05/31 13:43:04;;;;;;;2.88;1.35;;;21.50;45.80;;;;;;5058747;28;20468;-73
2022/05/31 13:45:33;;;;;;;2.10;1.17;;;21.50;46.00;;;;;;5078474;28;20068;-77
2022/05/31 13:48:09;;;;;;;2.85;1.45;;;21.40;46.20;;;;;;5076499;28;20484;-76
2022/05/31 13:50:38;;;;;;;3.05;1.35;;;21.40;45.90;;;;;;5068263;28;20742;-77
2022/05/31 13:53:12;;;;;;;3.58;1.17;;;21.40;45.60;;;;;;5079616;28;20416;-76
2022/05/31 13:55:40;;;;;;;3.03;1.17;;;21.40;45.30;;;;;;5078182;28;20049;-74
2022/05/31 13:58:13;;;;;;;3.38;1.20;;;21.30;44.30;;;;;;5077121;28;20044;-76
2022/05/31 14:00:44;;;;;;;3.50;0.95;;;21.20;44.70;;;;;;5071366;28;20056;-78
2022/05/31 14:03:20;;;;;;;2.25;1.13;;;21.30;45.00;;;;;;5059219;28;20531;-77